createdAt,value
2022-10-11T00:03:43.911Z,100950.13
2022-10-11T00:08:47.474Z,100948.78
2022-10-11T00:13:51.006Z,100960.38
2022-10-11T00:18:57.001Z,100951.88
2022-10-11T00:24:00.535Z,100942.28
2022-10-11T00:29:04.088Z,100949.56
2022-10-11T00:34:09.390Z,100945.72
2022-10-11T00:39:14.402Z,100950.69
2022-10-11T00:44:20.534Z,100949.41
2022-10-11T00:49:34.568Z,100944.66
2022-10-11T00:54:46.893Z,100939.88
2022-10-11T00:59:53.090Z,100931.09
2022-10-11T01:05:25.348Z,100933.53
2022-10-11T01:10:22.553Z,100943.47
2022-10-11T01:15:33.964Z,100946.13
2022-10-11T01:20:53.360Z,100944.63
2022-10-11T01:26:18.448Z,100950.00
2022-10-11T01:31:28.432Z,100947.84
2022-10-11T01:36:37.539Z,100940.53
2022-10-11T01:41:46.799Z,100938.22
2022-10-11T01:46:52.929Z,100939.84
2022-10-11T01:52:00.526Z,100941.44
2022-10-11T01:57:46.426Z,100943.75
2022-10-11T02:03:02.071Z,100947.97
2022-10-11T02:08:14.879Z,100952.34
2022-10-11T02:13:24.755Z,100955.84
2022-10-11T02:18:34.921Z,100959.97
2022-10-11T02:23:43.233Z,100968.13
2022-10-11T02:28:48.820Z,100975.06
2022-10-11T02:33:59.006Z,100984.28
2022-10-11T02:39:08.633Z,101006.38
2022-10-11T02:44:16.895Z,101017.78
2022-10-11T02:49:22.682Z,101021.56
2022-10-11T02:54:27.344Z,101019.66
2022-10-11T02:59:30.882Z,101031.97
2022-10-11T03:04:37.012Z,101032.09
2022-10-11T03:09:40.539Z,101027.03
2022-10-11T03:14:44.089Z,101038.38
2022-10-11T03:19:49.318Z,101037.06
2022-10-11T03:24:52.868Z,101033.56
2022-10-11T03:29:56.420Z,101025.50
2022-10-11T03:35:02.536Z,101033.34
2022-10-11T03:40:07.636Z,101042.38
2022-10-11T03:45:11.828Z,101037.34
2022-10-11T03:50:17.453Z,101045.34
2022-10-11T03:55:24.533Z,101039.28
2022-10-11T04:00:28.310Z,101034.47
2022-10-11T04:05:33.555Z,101041.06
2022-10-11T04:10:37.079Z,101039.78
2022-10-11T04:15:40.812Z,101040.94
2022-10-11T04:20:46.901Z,101048.91
2022-10-11T04:25:50.398Z,101055.91
2022-10-11T04:30:53.939Z,101046.31
2022-10-11T04:35:59.100Z,101054.47
2022-10-11T04:41:08.119Z,101054.63
2022-10-11T04:46:11.846Z,101051.50
2022-10-11T04:51:17.423Z,101067.31
2022-10-11T04:56:21.112Z,101059.47
2022-10-11T05:01:24.634Z,101072.56
2022-10-11T05:06:30.146Z,101062.50
2022-10-11T05:11:33.703Z,101064.84
2022-10-11T05:16:37.306Z,101071.03
2022-10-11T05:21:42.460Z,101068.59
2022-10-11T05:26:46.664Z,101057.69
2022-10-11T05:31:50.211Z,101057.53
2022-10-11T05:36:55.395Z,101059.56
2022-10-11T05:41:58.928Z,101071.50
2022-10-11T05:47:02.461Z,101068.22
2022-10-11T05:52:08.641Z,101071.94
2022-10-11T05:57:12.941Z,101068.66
2022-10-11T06:02:16.496Z,101064.66
2022-10-11T06:07:21.664Z,101062.25
2022-10-11T06:12:25.191Z,101066.00
2022-10-11T06:17:28.828Z,101074.44
2022-10-11T06:22:34.940Z,101075.59
2022-10-11T06:27:38.493Z,101075.38
2022-10-11T06:32:42.051Z,101085.47
2022-10-11T06:37:47.220Z,101096.41
2022-10-11T06:42:50.736Z,101088.06
2022-10-11T06:47:54.324Z,101090.53
2022-10-11T06:52:59.582Z,101087.91
2022-10-11T06:58:03.130Z,101095.28
2022-10-11T07:03:06.750Z,101083.06
2022-10-11T07:08:12.001Z,101097.34
2022-10-11T07:13:17.382Z,101096.00
2022-10-11T07:18:21.125Z,101099.34
2022-10-11T07:23:26.811Z,101095.34
2022-10-11T07:28:30.447Z,101091.28
2022-10-11T07:33:34.230Z,101100.94
2022-10-11T07:38:41.281Z,101094.22
2022-10-11T07:43:44.985Z,101090.94
2022-10-11T07:48:48.746Z,101095.38
2022-10-11T07:53:56.454Z,101093.63
2022-10-11T07:59:01.721Z,101087.63
2022-10-11T08:04:05.474Z,101076.44
2022-10-11T08:09:10.686Z,101083.53
2022-10-11T08:14:14.257Z,101092.59
2022-10-11T08:19:18.044Z,101089.16
2022-10-11T08:24:23.217Z,101085.81
2022-10-11T08:29:26.737Z,101080.00
2022-10-11T08:34:30.265Z,101091.53
2022-10-11T08:39:36.453Z,101098.53
2022-10-11T08:45:10.700Z,101092.44
2022-10-11T08:50:08.846Z,101095.41
2022-10-11T08:55:21.933Z,101103.47
2022-10-11T09:00:31.628Z,101095.47
2022-10-11T09:05:37.328Z,101103.47
2022-10-11T09:10:59.314Z,101108.88
2022-10-11T09:16:10.728Z,101116.03
2022-10-11T09:21:24.152Z,101107.41
2022-10-11T09:26:34.912Z,101113.66
2022-10-11T09:31:38.648Z,101118.03
2022-10-11T09:36:47.601Z,101119.94
2022-10-11T09:41:57.748Z,101128.66
2022-10-11T09:47:01.359Z,101129.69
2022-10-11T09:52:07.751Z,101119.28
2022-10-11T09:57:28.193Z,101108.97
2022-10-11T10:02:39.342Z,101105.59
2022-10-11T10:08:04.114Z,101096.97
2022-10-11T10:13:21.135Z,101086.63
2022-10-11T10:18:30.694Z,101096.34
2022-10-11T10:23:37.456Z,101095.41
2022-10-11T10:29:00.073Z,101091.13
2022-10-11T10:34:07.108Z,101093.06
2022-10-11T10:39:17.037Z,101105.44
2022-10-11T10:44:22.193Z,101102.78
2022-10-11T10:55:01.063Z,101107.41
2022-10-11T11:00:14.698Z,101116.06
2022-10-11T11:05:29.481Z,101117.09
2022-10-11T11:10:37.966Z,101117.81
2022-10-11T11:15:52.557Z,101130.19
2022-10-11T11:21:09.934Z,101136.38
2022-10-11T11:26:22.812Z,101127.81
2022-10-11T11:32:07.300Z,101119.97
2022-10-11T11:37:22.914Z,101110.56
2022-10-11T11:42:31.762Z,101103.66
2022-10-11T11:47:41.178Z,101106.34
2022-10-11T11:52:48.142Z,101108.13
2022-10-11T11:58:01.036Z,101114.19
2022-10-11T12:03:15.627Z,101117.72
2022-10-11T12:08:27.077Z,101120.50
2022-10-11T12:13:35.434Z,101115.22
2022-10-11T12:18:54.922Z,101121.22
2022-10-11T12:24:13.946Z,101120.16
2022-10-11T12:29:45.827Z,101128.88
2022-10-11T12:34:51.007Z,101124.63
2022-10-11T12:39:55.514Z,101119.28
2022-10-11T12:45:31.203Z,101114.69
2022-10-11T12:50:45.375Z,101132.00
2022-10-11T12:55:58.335Z,101124.97
2022-10-11T13:01:22.941Z,101135.41
2022-10-11T13:06:29.933Z,101144.94
2022-10-11T13:11:36.107Z,101160.66
2022-10-11T13:16:51.144Z,101159.75
2022-10-11T13:21:58.905Z,101145.72
2022-10-11T13:27:03.978Z,101151.81
2022-10-11T13:32:12.483Z,101161.34
2022-10-11T13:37:20.835Z,101171.13
2022-10-11T13:42:29.334Z,101170.88
2022-10-11T13:47:33.778Z,101173.16
2022-10-11T13:52:51.143Z,101181.25
2022-10-11T13:57:55.438Z,101177.22
2022-10-11T14:03:02.045Z,101184.22
2022-10-11T14:08:20.017Z,101183.41
2022-10-11T14:13:26.417Z,101189.44
2022-10-11T14:18:48.677Z,101200.75
2022-10-11T14:23:55.461Z,101205.09
2022-10-11T14:29:01.329Z,101200.72
2022-10-11T14:34:05.415Z,101210.22
2022-10-11T14:39:16.550Z,101198.88
2022-10-11T14:44:20.637Z,101203.28
2022-10-11T14:49:25.968Z,101210.22
2022-10-11T14:54:32.345Z,101215.44
2022-10-11T14:59:37.727Z,101218.09
2022-10-11T15:04:41.261Z,101232.00
2022-10-11T15:09:47.437Z,101226.91
2022-10-11T15:14:50.231Z,101226.31
2022-10-11T15:19:53.757Z,101247.28
2022-10-11T15:24:59.044Z,101255.09
2022-10-11T15:30:02.576Z,101256.84
2022-10-11T15:35:06.760Z,101250.66
2022-10-11T15:40:19.745Z,101258.09
2022-10-11T15:45:24.069Z,101266.63
2022-10-11T15:50:29.716Z,101270.41
2022-10-11T15:55:36.934Z,101277.00
2022-10-11T16:00:40.961Z,101279.31
2022-10-11T16:05:44.757Z,101280.28
2022-10-11T16:10:50.729Z,101265.44
2022-10-11T16:15:54.359Z,101264.22
2022-10-11T16:20:58.137Z,101266.09
2022-10-11T16:26:05.601Z,101266.66
2022-10-11T16:31:10.026Z,101260.94
2022-10-11T16:36:14.522Z,101265.34
2022-10-11T16:41:19.684Z,101269.59
2022-10-11T16:46:23.479Z,101275.19
2022-10-11T16:51:27.029Z,101276.50
2022-10-11T16:56:34.962Z,101274.66
2022-10-11T17:01:42.890Z,101276.00
2022-10-11T17:06:46.491Z,101278.72
2022-10-11T17:11:51.957Z,101279.84
2022-10-11T17:16:55.511Z,101284.97
2022-10-11T17:21:59.937Z,101282.91
2022-10-11T17:27:05.998Z,101288.56
2022-10-11T17:32:09.593Z,101301.63
2022-10-11T17:37:13.148Z,101299.34
2022-10-11T17:42:18.339Z,101296.53
2022-10-11T17:47:21.888Z,101284.28
2022-10-11T17:52:25.477Z,101281.28
2022-10-11T17:57:30.683Z,101282.88
2022-10-11T18:02:34.332Z,101287.41
2022-10-11T18:07:37.882Z,101280.34
2022-10-11T18:12:43.046Z,101271.53
2022-10-11T18:17:46.624Z,101267.97
2022-10-11T18:22:51.195Z,101272.38
2022-10-11T18:27:56.364Z,101267.00
2022-10-11T18:32:59.886Z,101268.03
2022-10-11T18:38:03.558Z,101253.69
2022-10-11T18:43:08.742Z,101266.06
2022-10-11T18:48:12.998Z,101267.59
2022-10-11T18:53:16.547Z,101254.69
2022-10-11T18:58:21.713Z,101266.84
2022-10-11T19:03:25.235Z,101266.75
2022-10-11T19:08:29.296Z,101250.81
2022-10-11T19:13:34.861Z,101245.94
2022-10-11T19:18:43.911Z,101243.28
2022-10-11T19:23:49.540Z,101233.84
2022-10-11T19:28:58.579Z,101237.59
2022-10-11T19:34:02.256Z,101235.72
2022-10-11T19:39:06.763Z,101238.53
2022-10-11T19:44:12.823Z,101227.31
2022-10-11T19:49:16.677Z,101224.34
2022-10-11T19:54:20.274Z,101222.75
2022-10-11T19:59:25.435Z,101215.47
2022-10-11T20:09:52.529Z,101192.13
2022-10-11T20:14:57.864Z,101187.94
2022-10-11T20:20:00.656Z,101182.53
2022-10-11T20:25:04.338Z,101169.19
2022-10-11T20:30:11.112Z,101165.41
2022-10-11T20:35:14.756Z,101161.41
2022-10-11T20:40:18.498Z,101162.06
2022-10-11T20:45:23.654Z,101155.25
2022-10-11T20:50:26.439Z,101151.88
2022-10-11T20:55:29.965Z,101139.47
2022-10-11T21:00:35.126Z,101130.28
2022-10-11T21:05:37.907Z,101124.78
2022-10-11T21:10:41.396Z,101119.91
2022-10-11T21:15:46.598Z,101115.34
2022-10-11T21:20:49.390Z,101115.63
2022-10-11T21:25:52.909Z,101111.47
2022-10-11T21:31:04.226Z,101104.03
2022-10-11T21:36:09.598Z,101104.78
2022-10-11T21:41:14.744Z,101102.22
2022-10-11T21:46:20.014Z,101112.13
2022-10-11T21:51:24.886Z,101108.84
2022-10-11T21:56:28.813Z,101115.78
2022-10-11T22:01:36.118Z,101119.16
2022-10-11T22:06:39.754Z,101114.56
2022-10-11T22:11:43.303Z,101108.63
2022-10-11T22:16:48.546Z,101112.66
2022-10-11T22:21:52.199Z,101104.78
2022-10-11T22:26:55.841Z,101113.72
2022-10-11T22:32:01.019Z,101117.44
2022-10-11T22:37:03.801Z,101113.69
2022-10-11T22:42:07.575Z,101104.00
2022-10-11T22:47:12.736Z,101101.34
2022-10-11T22:52:15.556Z,101099.22
2022-10-11T22:57:19.075Z,101106.34
2022-10-11T23:02:25.472Z,101101.56
2022-10-11T23:07:28.998Z,101105.19
2022-10-11T23:12:32.791Z,101106.25
2022-10-11T23:17:38.471Z,101105.72
2022-10-11T23:22:42.148Z,101108.50
2022-10-11T23:27:45.686Z,101106.47
2022-10-11T23:32:50.837Z,101104.09
2022-10-11T23:37:53.749Z,101108.47
2022-10-11T23:42:57.310Z,101103.59
2022-10-11T23:48:02.483Z,101106.50
2022-10-11T23:53:05.279Z,101109.97
2022-10-11T23:58:08.803Z,101117.72
